Time;durP1;ratioP1;P1;durP2;ratioP2;P2;SDS_P1;SDS_P2;PMS_P1;PMS_P2;Temp;Humidity;BMP_temperature;BMP_pressure;BME280_temperature;BME280_humidity;BME280_pressure;Samples;Min_cycle;Max_cycle;Signal;HPM_P1;HPM_P2
2024/01/31 00:01:03;;;;;;;10.10;9.60;;;;;;;;;;5033952;28;20095;-56
2024/01/31 00:03:29;;;;;;;9.77;9.27;;;;;;;;;;5038828;28;20084;-57
2024/01/31 00:05:54;;;;;;;9.32;8.93;;;;;;;;;;5032147;28;20116;-57
2024/01/31 00:08:19;;;;;;;9.60;9.20;;;;;;;;;;5033127;28;20095;-57
2024/01/31 00:10:45;;;;;;;10.82;10.23;;;;;;;;;;5032322;28;20029;-57
2024/01/31 00:13:10;;;;;;;10.13;9.63;;;;;;;;;;5031653;28;20503;-57
2024/01/31 00:15:35;;;;;;;9.52;9.13;;;;;;;;;;5034126;28;20022;-59
2024/01/31 00:18:01;;;;;;;9.75;9.32;;;;;;;;;;5044871;28;20550;-58
2024/01/31 00:20:26;;;;;;;9.57;9.18;;;;;;;;;;5030858;28;20459;-59
2024/01/31 00:22:52;;;;;;;9.80;9.30;;;;;;;;;;5031569;28;20029;-59
2024/01/31 00:25:17;;;;;;;10.70;10.20;;;;;;;;;;5030495;28;20026;-58
2024/01/31 00:27:42;;;;;;;9.70;9.30;;;;;;;;;;5030664;28;20495;-56
2024/01/31 00:30:10;;;;;;;9.80;9.40;;;;;;;;;;5030019;28;20091;-55
2024/01/31 00:32:35;;;;;;;9.90;9.40;;;;;;;;;;5033970;28;20021;-55
2024/01/31 00:35:00;;;;;;;10.18;9.68;;;;;;;;;;5031421;28;21259;-57
2024/01/31 00:37:26;;;;;;;9.40;9.00;;;;;;;;;;5031565;28;20022;-57
2024/01/31 00:39:51;;;;;;;9.77;9.30;;;;;;;;;;5013194;28;20160;-59
2024/01/31 00:42:16;;;;;;;9.50;9.10;;;;;;;;;;5031152;28;20053;-57
2024/01/31 00:44:42;;;;;;;10.02;9.52;;;;;;;;;;5026644;28;20033;-57
2024/01/31 00:47:08;;;;;;;9.45;9.05;;;;;;;;;;5030734;28;20431;-58
2024/01/31 00:49:34;;;;;;;10.55;10.05;;;;;;;;;;5029861;28;20503;-58
2024/01/31 00:51:59;;;;;;;11.68;11.00;;;;;;;;;;5028989;28;20117;-59
2024/01/31 00:54:25;;;;;;;10.27;9.77;;;;;;;;;;5029513;28;20009;-59
2024/01/31 00:56:50;;;;;;;9.60;9.20;;;;;;;;;;5031156;28;20044;-58
2024/01/31 00:59:15;;;;;;;9.70;9.30;;;;;;;;;;5028766;28;20384;-56
2024/01/31 01:01:40;;;;;;;10.00;9.50;;;;;;;;;;5024540;28;20025;-57
2024/01/31 01:04:09;;;;;;;10.23;9.73;;;;;;;;;;5030283;28;20407;-56
2024/01/31 01:06:34;;;;;;;9.70;9.30;;;;;;;;;;5031000;28;20057;-56
2024/01/31 01:08:59;;;;;;;10.00;9.50;;;;;;;;;;5030917;28;20056;-59
2024/01/31 01:11:25;;;;;;;9.75;9.35;;;;;;;;;;5030974;28;20475;-59
2024/01/31 01:13:50;;;;;;;10.70;10.18;;;;;;;;;;5032988;28;20152;-59
2024/01/31 01:16:16;;;;;;;10.20;9.70;;;;;;;;;;5030478;28;20022;-57
2024/01/31 01:18:41;;;;;;;10.02;9.52;;;;;;;;;;5035485;28;20021;-58
2024/01/31 01:21:06;;;;;;;9.98;9.48;;;;;;;;;;5014923;28;20029;-58
2024/01/31 01:23:32;;;;;;;10.27;9.77;;;;;;;;;;5035644;28;20036;-56
2024/01/31 01:25:57;;;;;;;10.52;10.02;;;;;;;;;;5030732;28;20018;-59
2024/01/31 01:28:23;;;;;;;9.93;9.43;;;;;;;;;;5032167;28;20487;-57
2024/01/31 01:30:48;;;;;;;10.13;9.63;;;;;;;;;;5030350;28;20168;-58
2024/01/31 01:33:14;;;;;;;9.88;9.40;;;;;;;;;;5029447;28;20032;-57
2024/01/31 01:35:39;;;;;;;9.70;9.30;;;;;;;;;;5032688;28;20025;-58
2024/01/31 01:38:04;;;;;;;9.85;9.40;;;;;;;;;;5035155;28;20017;-57
2024/01/31 01:40:30;;;;;;;10.32;9.82;;;;;;;;;;5028164;28;20025;-58
2024/01/31 01:42:55;;;;;;;9.82;9.32;;;;;;;;;;5033400;28;20538;-56
2024/01/31 01:45:21;;;;;;;10.02;9.52;;;;;;;;;;5035964;28;20075;-58
2024/01/31 01:47:50;;;;;;;10.10;9.60;;;;;;;;;;5028794;28;20018;-58
2024/01/31 01:50:16;;;;;;;9.75;9.32;;;;;;;;;;5029620;28;20025;-57
2024/01/31 01:52:41;;;;;;;10.50;10.00;;;;;;;;;;5028494;28;20075;-55
2024/01/31 01:55:07;;;;;;;11.15;10.55;;;;;;;;;;5030521;28;20021;-56
2024/01/31 01:57:33;;;;;;;9.30;8.90;;;;;;;;;;5031297;28;20045;-56
2024/01/31 01:59:59;;;;;;;9.88;9.40;;;;;;;;;;5029965;28;20032;-58
2024/01/31 02:02:24;;;;;;;9.82;9.43;;;;;;;;;;5012223;28;20056;-57
2024/01/31 02:04:50;;;;;;;10.30;9.80;;;;;;;;;;5031125;28;20046;-55
2024/01/31 02:07:20;;;;;;;10.20;9.70;;;;;;;;;;5032147;28;20538;-56
2024/01/31 02:09:46;;;;;;;9.65;9.25;;;;;;;;;;5030036;28;20109;-56
2024/01/31 02:12:11;;;;;;;10.10;9.60;;;;;;;;;;5016094;28;20133;-56
2024/01/31 02:14:37;;;;;;;9.98;9.48;;;;;;;;;;5033883;28;20033;-58
2024/01/31 02:17:02;;;;;;;9.80;9.30;;;;;;;;;;5034123;28;20574;-57
2024/01/31 02:19:31;;;;;;;10.23;9.73;;;;;;;;;;5031090;28;20022;-58
2024/01/31 02:22:00;;;;;;;9.43;9.02;;;;;;;;;;5032708;28;20036;-58
2024/01/31 02:24:25;;;;;;;9.80;9.40;;;;;;;;;;5024049;28;20091;-58
2024/01/31 02:26:50;;;;;;;10.00;9.50;;;;;;;;;;5031154;28;20104;-58
2024/01/31 02:29:16;;;;;;;10.35;9.85;;;;;;;;;;5015653;28;20660;-58
2024/01/31 02:31:41;;;;;;;10.05;9.55;;;;;;;;;;5003781;28;20054;-57
2024/01/31 02:34:06;;;;;;;10.18;9.68;;;;;;;;;;5031779;28;20064;-58
2024/01/31 02:36:32;;;;;;;9.88;9.48;;;;;;;;;;5033795;28;20020;-58
2024/01/31 02:38:57;;;;;;;10.75;10.25;;;;;;;;;;5031987;28;20025;-57
2024/01/31 02:41:22;;;;;;;10.40;9.90;;;;;;;;;;5034576;28;20539;-56
2024/01/31 02:43:50;;;;;;;10.65;10.15;;;;;;;;;;5031734;28;20678;-57
2024/01/31 02:46:15;;;;;;;10.75;10.23;;;;;;;;;;5031809;28;20021;-57
2024/01/31 02:48:40;;;;;;;9.88;9.45;;;;;;;;;;5031732;28;20021;-56
2024/01/31 02:51:06;;;;;;;10.00;9.50;;;;;;;;;;5031648;28;20021;-56
2024/01/31 02:53:31;;;;;;;10.52;10.02;;;;;;;;;;5031044;28;20036;-58
2024/01/31 02:55:56;;;;;;;10.60;10.10;;;;;;;;;;5033113;28;20045;-59
2024/01/31 02:58:22;;;;;;;9.48;9.07;;;;;;;;;;5034978;28;20037;-57
2024/01/31 03:00:47;;;;;;;9.30;8.90;;;;;;;;;;5033184;28;20373;-56
2024/01/31 03:03:12;;;;;;;10.15;9.65;;;;;;;;;;5036028;28;20100;-57
2024/01/31 03:05:38;;;;;;;10.05;9.55;;;;;;;;;;5041134;28;20025;-57
2024/01/31 03:08:03;;;;;;;10.10;9.60;;;;;;;;;;5041822;28;20025;-56
2024/01/31 03:10:29;;;;;;;10.00;9.50;;;;;;;;;;5042502;28;20017;-56
2024/01/31 03:12:54;;;;;;;9.77;9.35;;;;;;;;;;5039078;28;20017;-57
2024/01/31 03:15:19;;;;;;;9.50;9.10;;;;;;;;;;5036646;28;20025;-57
2024/01/31 03:17:45;;;;;;;9.90;9.40;;;;;;;;;;5031262;28;20390;-56
2024/01/31 03:20:11;;;;;;;9.80;9.32;;;;;;;;;;5038149;28;20132;-59
2024/01/31 03:22:36;;;;;;;9.50;9.10;;;;;;;;;;5035234;28;20032;-58
2024/01/31 03:25:01;;;;;;;9.45;9.05;;;;;;;;;;5035410;28;20029;-58
2024/01/31 03:27:27;;;;;;;9.95;9.45;;;;;;;;;;5037698;28;20028;-57
2024/01/31 03:29:52;;;;;;;9.95;9.45;;;;;;;;;;5016444;28;20057;-57
2024/01/31 03:32:17;;;;;;;10.20;9.70;;;;;;;;;;5039235;28;20013;-57
2024/01/31 03:34:43;;;;;;;10.43;9.93;;;;;;;;;;5033821;28;20038;-57
2024/01/31 03:37:08;;;;;;;10.10;9.60;;;;;;;;;;5033650;28;20526;-55
2024/01/31 03:39:33;;;;;;;9.30;8.90;;;;;;;;;;5035978;28;20379;-57
2024/01/31 03:41:59;;;;;;;9.50;9.10;;;;;;;;;;5032119;28;20071;-55
2024/01/31 03:44:24;;;;;;;10.00;9.50;;;;;;;;;;5031597;28;20013;-57
2024/01/31 03:46:50;;;;;;;10.10;9.60;;;;;;;;;;5032085;28;20044;-58
2024/01/31 03:49:15;;;;;;;9.63;9.20;;;;;;;;;;5030482;28;20422;-56
2024/01/31 03:51:40;;;;;;;9.50;9.10;;;;;;;;;;5030177;28;20053;-57
2024/01/31 03:54:06;;;;;;;9.07;8.68;;;;;;;;;;5026450;28;20029;-58
2024/01/31 03:56:31;;;;;;;9.95;9.45;;;;;;;;;;5029573;28;20415;-57
2024/01/31 03:58:56;;;;;;;9.90;9.40;;;;;;;;;;5029784;28;20518;-57
2024/01/31 04:01:22;;;;;;;10.00;9.50;;;;;;;;;;5031734;28;20487;-59
2024/01/31 04:03:47;;;;;;;9.30;8.90;;;;;;;;;;5031639;28;20511;-59
2024/01/31 04:06:12;;;;;;;10.30;9.80;;;;;;;;;;5031990;28;20399;-58
2024/01/31 04:08:38;;;;;;;9.70;9.20;;;;;;;;;;5030378;28;20053;-57
2024/01/31 04:11:03;;;;;;;10.40;9.90;;;;;;;;;;5028589;28;20017;-59
2024/01/31 04:13:29;;;;;;;11.02;10.43;;;;;;;;;;5026638;28;20483;-58
2024/01/31 04:15:54;;;;;;;9.65;9.23;;;;;;;;;;5025187;28;20557;-57
2024/01/31 04:18:20;;;;;;;9.68;9.27;;;;;;;;;;5023138;28;20029;-56
2024/01/31 04:20:45;;;;;;;10.10;9.60;;;;;;;;;;5028791;28;20029;-57
2024/01/31 04:23:10;;;;;;;10.20;9.70;;;;;;;;;;5026003;28;20030;-58
2024/01/31 04:25:36;;;;;;;9.88;9.38;;;;;;;;;;5028844;28;20024;-58
2024/01/31 04:28:01;;;;;;;10.15;9.65;;;;;;;;;;5031145;28;20022;-57
2024/01/31 04:30:27;;;;;;;10.40;9.90;;;;;;;;;;5028806;28;20494;-57
2024/01/31 04:32:52;;;;;;;10.23;9.73;;;;;;;;;;5030082;28;20017;-59
2024/01/31 04:35:18;;;;;;;10.68;10.18;;;;;;;;;;5031410;28;20029;-58
2024/01/31 04:37:43;;;;;;;10.20;9.70;;;;;;;;;;5031248;28;20032;-56
2024/01/31 04:40:09;;;;;;;10.30;9.80;;;;;;;;;;5022311;28;20028;-56
2024/01/31 04:42:35;;;;;;;11.20;10.60;;;;;;;;;;5029055;28;20084;-59
2024/01/31 04:45:00;;;;;;;10.50;10.00;;;;;;;;;;5031183;28;20460;-59
2024/01/31 04:47:25;;;;;;;10.88;10.38;;;;;;;;;;5023081;28;20037;-58
2024/01/31 04:49:51;;;;;;;11.88;11.27;;;;;;;;;;5031128;28;20017;-58
2024/01/31 04:52:17;;;;;;;10.88;10.38;;;;;;;;;;5031046;28;20124;-58
2024/01/31 04:54:42;;;;;;;11.38;10.80;;;;;;;;;;5029507;28;20025;-59
2024/01/31 04:57:07;;;;;;;11.00;10.50;;;;;;;;;;5031059;28;20036;-59
2024/01/31 04:59:37;;;;;;;11.25;10.65;;;;;;;;;;5030778;28;20032;-59
2024/01/31 05:02:02;;;;;;;11.48;10.88;;;;;;;;;;5031005;28;20021;-59
2024/01/31 05:04:28;;;;;;;11.23;10.63;;;;;;;;;;5031963;28;20046;-59
2024/01/31 05:06:53;;;;;;;11.82;11.23;;;;;;;;;;5031074;28;20017;-59
2024/01/31 05:09:19;;;;;;;10.80;10.30;;;;;;;;;;5039777;28;20034;-59
2024/01/31 05:11:47;;;;;;;10.48;9.98;;;;;;;;;;5030399;28;20029;-57
2024/01/31 05:14:12;;;;;;;11.07;10.48;;;;;;;;;;5030267;28;20075;-58
2024/01/31 05:16:39;;;;;;;10.68;10.18;;;;;;;;;;5028305;28;20025;-57
2024/01/31 05:19:05;;;;;;;10.77;10.27;;;;;;;;;;5037184;28;20025;-58
2024/01/31 05:21:31;;;;;;;11.55;10.95;;;;;;;;;;5029222;28;20167;-59
2024/01/31 05:23:56;;;;;;;11.02;10.43;;;;;;;;;;5029994;28;20029;-58
2024/01/31 05:26:21;;;;;;;11.57;10.98;;;;;;;;;;5029952;28;20029;-59
2024/01/31 05:28:47;;;;;;;11.18;10.57;;;;;;;;;;5029052;28;20025;-56
2024/01/31 05:31:12;;;;;;;11.73;11.10;;;;;;;;;;5034476;28;20576;-59
2024/01/31 05:33:37;;;;;;;10.20;9.70;;;;;;;;;;5030156;28;20022;-60
2024/01/31 05:36:03;;;;;;;10.23;9.73;;;;;;;;;;5032889;28;20095;-59
2024/01/31 05:38:28;;;;;;;10.50;10.00;;;;;;;;;;5029988;28;20049;-58
2024/01/31 05:40:54;;;;;;;11.10;10.50;;;;;;;;;;5033219;28;20033;-55
2024/01/31 05:43:19;;;;;;;10.48;9.98;;;;;;;;;;5034096;28;20025;-59
2024/01/31 05:45:44;;;;;;;10.57;10.07;;;;;;;;;;5033016;28;20501;-59
2024/01/31 05:48:10;;;;;;;11.27;10.68;;;;;;;;;;5033406;28;20036;-57
2024/01/31 05:50:35;;;;;;;10.35;9.85;;;;;;;;;;5033407;28;20080;-57
2024/01/31 05:53:00;;;;;;;10.63;10.05;;;;;;;;;;5033564;28;20028;-59
2024/01/31 05:55:26;;;;;;;9.95;9.45;;;;;;;;;;5034126;28;20096;-59
2024/01/31 05:57:52;;;;;;;10.60;10.00;;;;;;;;;;5029036;28;20538;-57
2024/01/31 06:00:17;;;;;;;10.45;9.85;;;;;;;;;;5033774;28;20391;-61
2024/01/31 06:02:43;;;;;;;9.60;9.10;;;;;;;;;;5033897;28;20037;-58
2024/01/31 06:05:08;;;;;;;9.65;9.15;;;;;;;;;;5030373;28;20258;-58
2024/01/31 06:07:34;;;;;;;8.63;8.23;;;;;;;;;;5031552;28;20025;-59
2024/01/31 06:09:59;;;;;;;8.45;8.05;;;;;;;;;;5028248;28;20111;-56
2024/01/31 06:12:24;;;;;;;8.40;8.00;;;;;;;;;;5037279;28;20093;-60
2024/01/31 06:14:50;;;;;;;8.50;8.10;;;;;;;;;;5028502;28;20075;-58
2024/01/31 06:17:17;;;;;;;8.60;8.20;;;;;;;;;;5023974;28;20071;-57
2024/01/31 06:19:42;;;;;;;8.68;8.27;;;;;;;;;;5026746;28;20030;-57
2024/01/31 06:22:07;;;;;;;9.00;8.60;;;;;;;;;;5025843;28;20404;-58
2024/01/31 06:24:33;;;;;;;9.00;8.60;;;;;;;;;;5026571;28;20022;-59
2024/01/31 06:26:58;;;;;;;9.35;8.95;;;;;;;;;;5020823;28;20021;-59
2024/01/31 06:29:24;;;;;;;9.75;9.35;;;;;;;;;;5029107;28;20071;-59
2024/01/31 06:31:51;;;;;;;10.15;9.65;;;;;;;;;;5020998;28;20095;-59
2024/01/31 06:34:17;;;;;;;10.25;9.75;;;;;;;;;;5026893;28;20624;-59
2024/01/31 06:36:42;;;;;;;10.43;9.93;;;;;;;;;;5023839;28;20033;-59
2024/01/31 06:39:09;;;;;;;9.90;9.50;;;;;;;;;;5025154;28;20094;-59
2024/01/31 06:41:36;;;;;;;10.18;9.68;;;;;;;;;;5028517;28;20018;-59
2024/01/31 06:44:01;;;;;;;10.43;9.93;;;;;;;;;;5027534;28;20026;-59
2024/01/31 06:46:27;;;;;;;10.48;9.98;;;;;;;;;;5023388;28;20844;-59
2024/01/31 06:48:52;;;;;;;10.40;9.90;;;;;;;;;;5026524;28;20029;-58
2024/01/31 06:51:17;;;;;;;10.50;10.00;;;;;;;;;;5025900;28;20395;-57
2024/01/31 06:53:44;;;;;;;10.82;10.32;;;;;;;;;;5022246;28;20075;-57
2024/01/31 06:56:16;;;;;;;11.18;10.68;;;;;;;;;;5025952;28;20014;-58
2024/01/31 06:58:42;;;;;;;10.75;10.25;;;;;;;;;;5025371;28;20168;-58
2024/01/31 07:01:07;;;;;;;11.13;10.63;;;;;;;;;;5027850;28;20105;-59
2024/01/31 07:03:32;;;;;;;11.43;10.93;;;;;;;;;;5023632;28;20033;-57
2024/01/31 07:05:58;;;;;;;11.55;11.05;;;;;;;;;;5025220;28;20032;-56
2024/01/31 07:08:23;;;;;;;11.38;10.88;;;;;;;;;;5027011;28;20036;-55
2024/01/31 07:10:48;;;;;;;12.15;11.57;;;;;;;;;;5028347;28;20459;-56
2024/01/31 07:13:14;;;;;;;11.50;11.00;;;;;;;;;;5025007;28;20053;-58
2024/01/31 07:15:39;;;;;;;11.23;10.73;;;;;;;;;;5025963;28;20017;-59
2024/01/31 07:18:04;;;;;;;11.73;11.23;;;;;;;;;;5027396;28;20116;-59
2024/01/31 07:20:30;;;;;;;11.80;11.30;;;;;;;;;;5023077;28;20096;-55
2024/01/31 07:22:55;;;;;;;11.45;10.95;;;;;;;;;;5025860;28;20018;-56
2024/01/31 07:25:21;;;;;;;11.90;11.40;;;;;;;;;;5024590;28;20432;-55
2024/01/31 07:27:46;;;;;;;11.40;10.90;;;;;;;;;;5027040;28;20104;-57
2024/01/31 07:30:11;;;;;;;12.05;11.55;;;;;;;;;;5025793;28;20017;-57
2024/01/31 07:32:37;;;;;;;11.80;11.30;;;;;;;;;;5026140;28;20017;-59
2024/01/31 07:35:03;;;;;;;12.10;11.60;;;;;;;;;;5024681;28;20471;-58
2024/01/31 07:37:28;;;;;;;11.52;11.02;;;;;;;;;;5031512;28;20025;-58
2024/01/31 07:39:56;;;;;;;11.63;11.13;;;;;;;;;;5027458;28;20018;-60
2024/01/31 07:42:21;;;;;;;11.73;11.23;;;;;;;;;;5032289;28;20027;-58
2024/01/31 07:44:47;;;;;;;12.10;11.60;;;;;;;;;;5031024;28;20371;-60
2024/01/31 07:47:13;;;;;;;12.02;11.52;;;;;;;;;;5030416;28;20021;-60
2024/01/31 07:49:40;;;;;;;12.10;11.60;;;;;;;;;;5029389;28;20037;-58
2024/01/31 07:52:06;;;;;;;11.85;11.35;;;;;;;;;;5030624;28;20024;-59
2024/01/31 07:54:31;;;;;;;12.05;11.55;;;;;;;;;;5012559;28;20009;-59
2024/01/31 07:56:56;;;;;;;12.80;12.20;;;;;;;;;;5021915;28;20036;-62
2024/01/31 07:59:22;;;;;;;12.20;11.70;;;;;;;;;;5021362;28;20041;-62
2024/01/31 08:01:47;;;;;;;12.35;11.80;;;;;;;;;;5029411;28;20033;-62
2024/01/31 08:04:12;;;;;;;12.07;11.57;;;;;;;;;;5027863;28;20041;-63
2024/01/31 08:06:41;;;;;;;12.02;11.52;;;;;;;;;;5029340;28;20037;-59
2024/01/31 08:09:07;;;;;;;12.15;11.65;;;;;;;;;;5029762;28;20017;-59
2024/01/31 08:11:32;;;;;;;12.40;11.80;;;;;;;;;;5031338;28;20025;-63
2024/01/31 08:13:58;;;;;;;12.00;11.50;;;;;;;;;;5003216;28;20518;-62
2024/01/31 08:16:23;;;;;;;12.10;11.60;;;;;;;;;;5025519;28;20026;-62
2024/01/31 08:18:48;;;;;;;11.82;11.32;;;;;;;;;;5028887;28;20072;-62
2024/01/31 08:21:14;;;;;;;12.00;11.50;;;;;;;;;;5029523;28;20432;-63
2024/01/31 08:23:39;;;;;;;12.07;11.57;;;;;;;;;;5011683;28;20040;-62
2024/01/31 08:26:06;;;;;;;12.38;11.80;;;;;;;;;;5027328;28;20040;-63
2024/01/31 08:28:31;;;;;;;12.15;11.65;;;;;;;;;;5027771;28;20052;-61
2024/01/31 08:30:56;;;;;;;12.07;11.57;;;;;;;;;;5031350;28;20052;-59
2024/01/31 08:33:22;;;;;;;12.07;11.57;;;;;;;;;;5030356;28;20340;-55
2024/01/31 08:35:47;;;;;;;12.15;11.65;;;;;;;;;;5028235;28;20025;-56
2024/01/31 08:38:12;;;;;;;13.48;12.88;;;;;;;;;;5019404;28;20033;-56
2024/01/31 08:40:39;;;;;;;12.02;11.52;;;;;;;;;;5030517;28;20018;-56
2024/01/31 08:43:04;;;;;;;11.95;11.45;;;;;;;;;;5035032;28;20063;-59
2024/01/31 08:45:29;;;;;;;12.50;11.90;;;;;;;;;;5026999;28;20057;-57
2024/01/31 08:47:55;;;;;;;12.20;11.70;;;;;;;;;;5028959;28;20026;-56
2024/01/31 08:50:21;;;;;;;12.23;11.73;;;;;;;;;;5024442;28;20029;-56
2024/01/31 08:52:47;;;;;;;12.15;11.65;;;;;;;;;;5022860;28;20110;-53
2024/01/31 08:55:13;;;;;;;12.30;11.80;;;;;;;;;;5028502;28;21336;-58
2024/01/31 08:57:39;;;;;;;12.50;11.90;;;;;;;;;;5031316;28;20025;-56
2024/01/31 09:00:04;;;;;;;12.30;11.80;;;;;;;;;;5030493;28;20097;-57
2024/01/31 09:02:30;;;;;;;12.48;11.90;;;;;;;;;;5031324;28;20025;-56
2024/01/31 09:04:55;;;;;;;12.07;11.57;;;;;;;;;;5029887;28;20103;-59
2024/01/31 09:07:20;;;;;;;12.45;11.85;;;;;;;;;;5025375;28;20032;-58
2024/01/31 09:09:46;;;;;;;12.45;11.85;;;;;;;;;;5028574;28;20034;-64
2024/01/31 09:12:11;;;;;;;12.65;12.05;;;;;;;;;;5028381;28;20026;-64
2024/01/31 09:14:36;;;;;;;12.45;11.88;;;;;;;;;;5029231;28;20072;-62
2024/01/31 09:17:02;;;;;;;12.38;11.80;;;;;;;;;;5033258;28;20017;-62
2024/01/31 09:19:28;;;;;;;12.50;11.90;;;;;;;;;;5034625;28;20456;-60
2024/01/31 09:21:53;;;;;;;12.35;11.82;;;;;;;;;;5038043;28;20029;-60
2024/01/31 09:24:18;;;;;;;12.60;12.00;;;;;;;;;;5033629;28;20049;-61
2024/01/31 09:26:44;;;;;;;12.60;12.00;;;;;;;;;;5032616;28;20021;-62
2024/01/31 09:29:10;;;;;;;12.48;11.88;;;;;;;;;;5032348;28;20013;-61
2024/01/31 09:31:35;;;;;;;12.23;11.73;;;;;;;;;;5035266;28;20026;-61
2024/01/31 09:34:00;;;;;;;11.98;11.48;;;;;;;;;;5035726;28;20022;-61
2024/01/31 09:36:26;;;;;;;11.70;11.20;;;;;;;;;;5039962;28;20021;-61
2024/01/31 09:38:52;;;;;;;12.18;11.68;;;;;;;;;;5033773;28;20541;-61
2024/01/31 09:41:17;;;;;;;12.88;12.27;;;;;;;;;;5032172;28;20555;-61
2024/01/31 09:43:46;;;;;;;12.02;11.52;;;;;;;;;;5027844;28;20034;-64
2024/01/31 09:46:11;;;;;;;11.88;11.38;;;;;;;;;;5016246;28;20027;-60
2024/01/31 09:48:38;;;;;;;11.95;11.45;;;;;;;;;;5032731;28;20041;-61
2024/01/31 09:51:04;;;;;;;12.35;11.75;;;;;;;;;;5034837;28;20510;-61
2024/01/31 09:53:33;;;;;;;12.52;11.93;;;;;;;;;;5028439;28;20018;-62
2024/01/31 09:55:59;;;;;;;12.50;11.90;;;;;;;;;;5036656;28;20387;-64
2024/01/31 09:58:24;;;;;;;12.40;11.80;;;;;;;;;;5035457;28;20096;-64
2024/01/31 10:00:50;;;;;;;12.38;11.77;;;;;;;;;;5033942;28;20026;-64
2024/01/31 10:03:16;;;;;;;12.85;12.25;;;;;;;;;;5035055;28;20021;-64
2024/01/31 10:05:42;;;;;;;12.95;12.35;;;;;;;;;;5030785;28;20032;-64
2024/01/31 10:08:07;;;;;;;13.23;12.55;;;;;;;;;;5032127;28;20045;-64
2024/01/31 10:10:33;;;;;;;12.65;12.05;;;;;;;;;;5027730;28;20587;-65
2024/01/31 10:12:59;;;;;;;12.07;11.48;;;;;;;;;;5018754;28;20021;-64
2024/01/31 10:15:24;;;;;;;12.70;12.10;;;;;;;;;;5033626;28;20376;-63
2024/01/31 10:17:49;;;;;;;12.13;11.52;;;;;;;;;;5032170;28;20483;-63
2024/01/31 10:20:14;;;;;;;11.93;11.32;;;;;;;;;;5031341;28;20025;-65
2024/01/31 10:22:40;;;;;;;11.80;11.20;;;;;;;;;;5029347;28;20026;-64
2024/01/31 10:25:06;;;;;;;11.75;11.15;;;;;;;;;;5033432;28;21261;-64
2024/01/31 10:27:38;;;;;;;11.80;11.20;;;;;;;;;;5032880;28;20053;-64
2024/01/31 10:30:13;;;;;;;12.50;11.90;;;;;;;;;;5032291;28;20032;-63
2024/01/31 10:32:40;;;;;;;11.40;10.90;;;;;;;;;;5031581;28;20509;-61
2024/01/31 10:35:06;;;;;;;12.02;11.43;;;;;;;;;;5032474;28;20025;-63
2024/01/31 10:37:32;;;;;;;11.93;11.32;;;;;;;;;;5033528;28;20445;-62
2024/01/31 10:39:58;;;;;;;12.30;11.70;;;;;;;;;;5036236;28;20155;-62
2024/01/31 10:42:24;;;;;;;11.80;11.20;;;;;;;;;;5035996;28;20438;-64
2024/01/31 10:44:50;;;;;;;11.20;10.70;;;;;;;;;;5032373;28;20040;-62
2024/01/31 10:47:15;;;;;;;10.85;10.35;;;;;;;;;;5031278;28;20502;-64
2024/01/31 10:49:40;;;;;;;11.63;11.02;;;;;;;;;;5034980;28;20048;-65
2024/01/31 10:52:07;;;;;;;11.38;10.85;;;;;;;;;;5030227;28;20017;-65
2024/01/31 10:54:34;;;;;;;11.70;11.10;;;;;;;;;;5033350;28;20104;-64
2024/01/31 10:57:00;;;;;;;10.82;10.32;;;;;;;;;;5034681;28;20021;-64
2024/01/31 10:59:25;;;;;;;11.90;11.30;;;;;;;;;;5033812;28;20028;-61
2024/01/31 11:01:58;;;;;;;11.18;10.68;;;;;;;;;;5033965;28;20025;-61
2024/01/31 11:04:24;;;;;;;10.77;10.27;;;;;;;;;;5034332;28;20045;-61
2024/01/31 11:06:52;;;;;;;11.00;10.50;;;;;;;;;;5031885;28;20034;-61
2024/01/31 11:09:24;;;;;;;11.05;10.55;;;;;;;;;;5018870;28;20091;-62
2024/01/31 11:12:11;;;;;;;10.80;10.30;;;;;;;;;;5034061;28;20025;-61
2024/01/31 11:14:38;;;;;;;11.18;10.68;;;;;;;;;;5031254;28;20022;-60
2024/01/31 11:17:05;;;;;;;10.43;9.93;;;;;;;;;;5019601;28;20021;-62
2024/01/31 11:19:31;;;;;;;10.55;10.05;;;;;;;;;;5025142;28;20022;-61
2024/01/31 11:21:56;;;;;;;10.50;10.00;;;;;;;;;;5036831;28;20033;-63
2024/01/31 11:24:23;;;;;;;11.50;10.90;;;;;;;;;;5014118;28;20043;-61
2024/01/31 11:26:49;;;;;;;10.98;10.48;;;;;;;;;;5031658;28;20094;-61
2024/01/31 11:29:15;;;;;;;12.35;11.70;;;;;;;;;;5023083;28;20101;-62
2024/01/31 11:31:41;;;;;;;11.02;10.52;;;;;;;;;;5025478;28;20022;-61
2024/01/31 11:34:06;;;;;;;11.00;10.50;;;;;;;;;;5025463;28;20503;-61
2024/01/31 11:36:31;;;;;;;11.15;10.60;;;;;;;;;;5022688;28;20013;-60
2024/01/31 11:38:57;;;;;;;11.68;11.07;;;;;;;;;;5008314;28;20602;-61
2024/01/31 11:41:22;;;;;;;11.40;10.80;;;;;;;;;;5028775;28;20125;-61
2024/01/31 11:43:48;;;;;;;11.45;10.85;;;;;;;;;;5029174;28;20522;-61
2024/01/31 11:46:14;;;;;;;10.55;10.05;;;;;;;;;;5029835;28;20040;-62
2024/01/31 11:48:39;;;;;;;10.38;9.88;;;;;;;;;;5030305;28;20499;-62
2024/01/31 11:51:05;;;;;;;11.75;11.15;;;;;;;;;;5029452;28;20033;-62
2024/01/31 11:53:30;;;;;;;10.88;10.38;;;;;;;;;;5031848;28;20056;-62
2024/01/31 11:55:56;;;;;;;10.65;10.15;;;;;;;;;;5029528;28;20064;-61
2024/01/31 11:58:21;;;;;;;10.50;10.00;;;;;;;;;;5034580;28;20048;-61
2024/01/31 12:00:46;;;;;;;10.65;10.15;;;;;;;;;;5033372;28;20036;-60
2024/01/31 12:03:12;;;;;;;11.70;11.10;;;;;;;;;;5028943;28;20370;-60
2024/01/31 12:05:37;;;;;;;11.60;11.00;;;;;;;;;;5037183;28;20033;-61
2024/01/31 12:08:02;;;;;;;10.63;10.13;;;;;;;;;;5037200;28;20025;-61
2024/01/31 12:10:28;;;;;;;10.60;10.10;;;;;;;;;;5030153;28;20465;-61
2024/01/31 12:13:00;;;;;;;10.48;9.98;;;;;;;;;;5031197;28;20192;-61
2024/01/31 12:15:26;;;;;;;10.68;10.18;;;;;;;;;;5029263;28;20075;-61
2024/01/31 12:17:52;;;;;;;11.60;11.00;;;;;;;;;;5027017;28;20515;-61
2024/01/31 12:20:17;;;;;;;11.50;10.90;;;;;;;;;;5019811;28;20057;-60
2024/01/31 12:22:45;;;;;;;10.63;10.13;;;;;;;;;;5031266;28;20347;-61
2024/01/31 12:25:11;;;;;;;10.90;10.40;;;;;;;;;;5029988;28;20033;-62
2024/01/31 12:27:36;;;;;;;11.18;10.68;;;;;;;;;;5026081;28;20067;-61
2024/01/31 12:30:02;;;;;;;11.00;10.50;;;;;;;;;;5027849;28;20021;-61
2024/01/31 12:32:27;;;;;;;10.60;10.10;;;;;;;;;;5027891;28;20103;-61
2024/01/31 12:34:53;;;;;;;11.82;11.23;;;;;;;;;;5018326;28;20071;-64
2024/01/31 12:37:19;;;;;;;10.85;10.35;;;;;;;;;;5027399;28;20018;-63
2024/01/31 12:39:44;;;;;;;10.80;10.30;;;;;;;;;;5025764;28;20076;-63
2024/01/31 12:42:10;;;;;;;11.32;10.77;;;;;;;;;;5025292;28;20114;-65
2024/01/31 12:44:35;;;;;;;10.93;10.43;;;;;;;;;;5011463;28;20083;-63
2024/01/31 12:47:08;;;;;;;10.80;10.30;;;;;;;;;;5025692;28;20021;-64
2024/01/31 12:49:33;;;;;;;10.43;9.93;;;;;;;;;;5023728;28;20017;-64
2024/01/31 12:52:00;;;;;;;10.98;10.48;;;;;;;;;;5025474;28;20072;-64
2024/01/31 12:54:26;;;;;;;10.57;10.07;;;;;;;;;;5024935;28;20045;-65
2024/01/31 12:56:51;;;;;;;10.60;10.10;;;;;;;;;;5028729;28;20426;-63
2024/01/31 12:59:18;;;;;;;10.32;9.82;;;;;;;;;;5025183;28;20419;-62
2024/01/31 13:01:43;;;;;;;10.70;10.20;;;;;;;;;;5026863;28;20048;-62
2024/01/31 13:04:09;;;;;;;11.05;10.55;;;;;;;;;;5029099;28;20045;-61
2024/01/31 13:06:34;;;;;;;11.15;10.65;;;;;;;;;;5029781;28;20033;-62
2024/01/31 13:08:59;;;;;;;10.68;10.18;;;;;;;;;;5026805;28;20029;-62
2024/01/31 13:11:25;;;;;;;10.65;10.15;;;;;;;;;;5024090;28;20437;-62
2024/01/31 13:13:50;;;;;;;10.45;9.95;;;;;;;;;;5028251;28;20021;-61
2024/01/31 13:16:15;;;;;;;11.13;10.63;;;;;;;;;;5028918;28;20029;-61
2024/01/31 13:18:41;;;;;;;10.93;10.43;;;;;;;;;;5027765;28;20036;-62
2024/01/31 13:21:06;;;;;;;10.90;10.40;;;;;;;;;;5038170;28;20052;-61
2024/01/31 13:23:33;;;;;;;10.57;10.07;;;;;;;;;;5021071;28;20443;-61
2024/01/31 13:25:58;;;;;;;10.88;10.38;;;;;;;;;;5028906;28;20029;-61
2024/01/31 13:28:24;;;;;;;10.50;10.00;;;;;;;;;;5030701;28;20025;-62
2024/01/31 13:30:49;;;;;;;11.43;10.82;;;;;;;;;;5027677;28;20468;-63
2024/01/31 13:33:14;;;;;;;11.10;10.60;;;;;;;;;;5030883;28;20636;-63
2024/01/31 13:35:40;;;;;;;10.90;10.40;;;;;;;;;;5011871;28;20021;-63
2024/01/31 13:38:05;;;;;;;11.00;10.50;;;;;;;;;;5029355;28;20132;-64
2024/01/31 13:40:31;;;;;;;10.85;10.35;;;;;;;;;;5028565;28;20121;-63
2024/01/31 13:42:56;;;;;;;11.15;10.63;;;;;;;;;;5032540;28;20033;-61
2024/01/31 13:45:22;;;;;;;11.00;10.50;;;;;;;;;;5028879;28;20083;-55
2024/01/31 13:47:47;;;;;;;11.00;10.50;;;;;;;;;;5031273;28;20438;-63
2024/01/31 13:50:13;;;;;;;11.00;10.50;;;;;;;;;;5029600;28;20029;-64
2024/01/31 13:52:38;;;;;;;10.60;10.10;;;;;;;;;;5028289;28;20017;-64
2024/01/31 13:55:04;;;;;;;11.98;11.38;;;;;;;;;;5028081;28;20083;-63
2024/01/31 13:57:29;;;;;;;11.10;10.60;;;;;;;;;;5031531;28;20017;-64
2024/01/31 13:59:56;;;;;;;11.52;10.93;;;;;;;;;;5029251;28;20544;-62
2024/01/31 14:02:22;;;;;;;11.05;10.55;;;;;;;;;;5031580;28;20025;-62
2024/01/31 14:04:47;;;;;;;11.00;10.50;;;;;;;;;;5035454;28;20570;-65
2024/01/31 14:07:12;;;;;;;11.40;10.80;;;;;;;;;;5034188;28;20022;-65
2024/01/31 14:09:38;;;;;;;10.98;10.48;;;;;;;;;;5030822;28;20021;-64
2024/01/31 14:12:03;;;;;;;11.48;10.88;;;;;;;;;;5030998;28;20536;-63
2024/01/31 14:14:30;;;;;;;10.30;9.80;;;;;;;;;;5030328;28;20048;-63